Time;durP1;ratioP1;P1;durP2;ratioP2;P2;SDS_P1;SDS_P2;PMS_P1;PMS_P2;Temp;Humidity;BMP_temperature;BMP_pressure;BME280_temperature;BME280_humidity;BME280_pressure;Samples;Min_cycle;Max_cycle;Signal;HPM_P1;HPM_P2
2022/01/09 00:01:33;;;;;;;12.23;2.50;;;3.40;99.90;;;;;;5085781;28;20056;-63
2022/01/09 00:04:01;;;;;;;7.78;1.38;;;3.40;99.90;;;;;;5078587;28;20040;-63
2022/01/09 00:06:29;;;;;;;10.90;1.80;;;3.30;99.90;;;;;;5080058;28;20056;-63
2022/01/09 00:08:56;;;;;;;8.73;2.38;;;3.40;99.90;;;;;;5076639;28;20044;-64
2022/01/09 00:11:27;;;;;;;11.85;1.55;;;3.40;99.90;;;;;;5086662;28;20055;-64
2022/01/09 00:13:56;;;;;;;3.70;1.08;;;3.30;99.90;;;;;;5096524;28;20059;-64
2022/01/09 00:16:24;;;;;;;6.97;1.40;;;3.40;99.90;;;;;;5092042;28;20052;-63
2022/01/09 00:18:52;;;;;;;12.55;1.50;;;3.40;99.90;;;;;;5083571;28;20052;-63
2022/01/09 00:21:20;;;;;;;8.60;1.60;;;3.50;99.90;;;;;;5081866;28;20055;-64
2022/01/09 00:23:47;;;;;;;9.40;2.03;;;3.60;99.90;;;;;;5094456;28;20048;-69
2022/01/09 00:26:15;;;;;;;9.88;2.05;;;3.70;99.90;;;;;;5088742;28;20055;-64
2022/01/09 00:28:43;;;;;;;16.88;1.65;;;3.70;99.90;;;;;;5106104;28;20063;-64
2022/01/09 00:31:10;;;;;;;7.97;1.48;;;3.60;99.90;;;;;;5062645;28;20387;-73
2022/01/09 00:33:38;;;;;;;13.93;1.70;;;3.60;99.90;;;;;;5074607;28;20048;-64
2022/01/09 00:36:05;;;;;;;10.00;1.25;;;3.50;99.90;;;;;;5104470;28;20051;-64
2022/01/09 00:38:33;;;;;;;9.57;2.17;;;3.40;99.90;;;;;;5088097;28;20047;-66
2022/01/09 00:41:01;;;;;;;8.88;1.65;;;3.40;99.90;;;;;;5089577;28;20054;-64
2022/01/09 00:43:30;;;;;;;16.10;1.42;;;3.30;99.90;;;;;;5102729;28;20043;-65
2022/01/09 00:45:58;;;;;;;9.50;1.60;;;3.30;99.90;;;;;;5075295;28;20407;-64
2022/01/09 00:48:26;;;;;;;10.45;1.98;;;3.30;99.90;;;;;;5083409;28;20525;-66
2022/01/09 00:50:54;;;;;;;5.97;1.77;;;3.30;99.90;;;;;;5087345;28;20040;-64
2022/01/09 00:53:21;;;;;;;8.60;1.70;;;3.30;99.90;;;;;;5077331;28;20048;-65
2022/01/09 00:55:49;;;;;;;6.13;1.77;;;3.40;99.90;;;;;;5088194;28;20391;-65
2022/01/09 00:58:17;;;;;;;11.82;1.45;;;3.30;99.90;;;;;;5092710;28;20044;-64
2022/01/09 01:00:45;;;;;;;10.20;1.40;;;3.30;99.90;;;;;;5064933;28;20236;-64
2022/01/09 01:03:12;;;;;;;10.23;0.95;;;3.30;99.90;;;;;;5085409;28;20035;-66
2022/01/09 01:05:40;;;;;;;12.00;1.52;;;3.30;99.90;;;;;;5087594;28;20476;-65
2022/01/09 01:08:08;;;;;;;10.18;1.55;;;3.20;99.90;;;;;;5071291;28;20605;-65
2022/01/09 01:10:36;;;;;;;15.45;2.10;;;3.10;99.90;;;;;;5078706;28;20051;-66
2022/01/09 01:13:04;;;;;;;12.77;1.02;;;3.10;99.90;;;;;;5097296;28;20051;-65
2022/01/09 01:15:31;;;;;;;15.82;1.73;;;3.10;99.90;;;;;;5079432;28;20048;-65
2022/01/09 01:17:59;;;;;;;10.55;1.75;;;3.10;99.90;;;;;;5085186;28;20063;-64
2022/01/09 01:20:29;;;;;;;20.45;2.03;;;3.00;99.90;;;;;;5070115;28;20048;-64
2022/01/09 01:22:58;;;;;;;9.32;1.20;;;2.90;99.90;;;;;;5081261;28;20051;-64
2022/01/09 01:25:26;;;;;;;;;;;2.90;99.90;;;;;;5090799;28;20051;-64
2022/01/09 01:27:54;;;;;;;13.23;1.90;;;2.90;99.90;;;;;;5096350;28;19923;-64
2022/01/09 01:30:21;;;;;;;18.25;1.95;;;2.90;99.90;;;;;;5087196;28;20406;-64
2022/01/09 01:32:49;;;;;;;12.07;1.40;;;2.90;99.90;;;;;;5080435;28;20052;-65
2022/01/09 01:35:17;;;;;;;14.27;1.92;;;2.90;99.90;;;;;;5071871;28;20040;-63
2022/01/09 01:37:44;;;;;;;9.55;1.63;;;2.90;99.90;;;;;;5084726;28;20047;-64
2022/01/09 01:40:15;;;;;;;16.38;2.78;;;2.90;99.90;;;;;;5079173;28;20043;-65
2022/01/09 01:42:44;;;;;;;13.63;2.03;;;2.90;99.90;;;;;;5076644;28;20044;-70
2022/01/09 01:45:14;;;;;;;12.30;1.25;;;3.00;99.90;;;;;;5063516;28;20049;-69
2022/01/09 01:47:41;;;;;;;9.95;1.40;;;3.00;99.90;;;;;;5077279;28;20036;-65
2022/01/09 01:50:12;;;;;;;9.55;1.90;;;3.00;99.90;;;;;;5085983;28;20048;-73
2022/01/09 01:52:44;;;;;;;11.15;1.42;;;3.00;99.90;;;;;;5067031;28;20052;-65
2022/01/09 01:55:13;;;;;;;7.57;1.25;;;2.90;99.90;;;;;;5083510;28;20048;-64
2022/01/09 01:57:44;;;;;;;13.20;1.90;;;2.90;99.90;;;;;;5079364;28;20404;-64
2022/01/09 02:00:14;;;;;;;5.03;1.30;;;2.90;99.90;;;;;;5087884;28;20056;-64
2022/01/09 02:02:42;;;;;;;8.40;1.25;;;2.90;99.90;;;;;;5066096;28;20056;-64
2022/01/09 02:05:11;;;;;;;12.77;2.20;;;2.90;99.90;;;;;;5087671;28;20040;-65
2022/01/09 02:07:39;;;;;;;10.88;1.50;;;2.80;99.90;;;;;;5086835;28;20051;-65
2022/01/09 02:10:08;;;;;;;11.45;1.98;;;2.80;99.90;;;;;;5082268;28;20048;-72
2022/01/09 02:12:40;;;;;;;24.38;5.25;;;2.90;99.90;;;;;;5086916;28;20056;-64
2022/01/09 02:15:29;;;;;;;7.65;1.23;;;2.90;99.90;;;;;;5070998;28;20539;-65
2022/01/09 02:17:58;;;;;;;5.03;1.00;;;2.80;99.90;;;;;;5071379;28;20048;-64
2022/01/09 02:20:25;;;;;;;10.50;1.58;;;2.90;99.90;;;;;;5084736;28;20818;-64
2022/01/09 02:22:54;;;;;;;12.40;2.47;;;2.90;99.90;;;;;;5081245;28;20044;-66
2022/01/09 02:25:26;;;;;;;7.75;1.60;;;2.90;99.90;;;;;;5082193;28;20052;-64
2022/01/09 02:27:54;;;;;;;9.27;1.20;;;2.90;99.90;;;;;;5108776;28;20043;-65
2022/01/09 02:30:22;;;;;;;13.52;1.67;;;2.80;99.90;;;;;;5085626;28;20039;-64
2022/01/09 02:32:50;;;;;;;10.30;1.48;;;2.70;99.90;;;;;;5074900;28;20500;-65
2022/01/09 02:35:21;;;;;;;10.80;1.67;;;2.70;99.90;;;;;;5072102;28;20068;-65
2022/01/09 02:37:48;;;;;;;2.67;0.75;;;2.70;99.90;;;;;;5093326;28;20522;-65
2022/01/09 02:40:16;;;;;;;5.85;1.20;;;2.60;99.90;;;;;;5102896;28;20509;-64
2022/01/09 02:42:44;;;;;;;3.28;1.20;;;2.60;99.90;;;;;;5086898;28;20036;-65
2022/01/09 02:45:11;;;;;;;11.93;1.15;;;2.50;99.90;;;;;;5072901;28;20617;-68
2022/01/09 02:47:39;;;;;;;6.97;2.75;;;2.50;99.90;;;;;;5070078;28;20063;-65
2022/01/09 02:50:33;;;;;;;7.82;0.85;;;2.50;99.90;;;;;;5076289;28;20045;-67
2022/01/09 02:52:58;;;;;;;16.30;1.88;;;2.50;99.90;;;;;;5091693;28;20395;-64
2022/01/09 02:55:28;;;;;;;9.75;1.63;;;2.50;99.90;;;;;;5091718;28;20052;-64
2022/01/09 02:57:58;;;;;;;5.38;1.10;;;2.50;99.90;;;;;;5085412;28;20033;-69
2022/01/09 03:00:28;;;;;;;7.22;0.95;;;2.50;99.90;;;;;;5070421;28;20393;-64
2022/01/09 03:02:57;;;;;;;9.05;1.27;;;2.50;99.90;;;;;;5083173;28;20607;-66
2022/01/09 03:05:25;;;;;;;7.95;1.40;;;2.50;99.90;;;;;;5092235;28;20063;-64
2022/01/09 03:07:53;;;;;;;7.97;1.25;;;2.50;99.90;;;;;;5082651;28;20051;-67
2022/01/09 03:10:22;;;;;;;10.27;1.27;;;2.40;99.90;;;;;;5089779;28;20056;-72
2022/01/09 03:12:51;;;;;;;11.60;1.80;;;2.50;99.90;;;;;;5086334;28;20048;-68
2022/01/09 03:15:19;;;;;;;15.35;1.45;;;2.40;99.90;;;;;;5080403;28;20297;-68
2022/01/09 03:17:47;;;;;;;12.27;1.92;;;2.30;99.90;;;;;;5091048;28;20056;-65
2022/01/09 03:20:18;;;;;;;6.35;1.05;;;2.30;99.90;;;;;;5092947;28;20058;-64
2022/01/09 03:22:46;;;;;;;10.07;1.20;;;2.20;99.90;;;;;;5081265;28;20052;-64
2022/01/09 03:25:14;;;;;;;12.15;1.35;;;2.20;99.90;;;;;;5105611;28;20403;-66
2022/01/09 03:27:45;;;;;;;8.50;1.30;;;2.20;99.90;;;;;;5111909;28;20048;-64
2022/01/09 03:30:13;;;;;;;8.85;1.15;;;2.20;99.90;;;;;;5096043;28;20039;-65
2022/01/09 03:32:42;;;;;;;6.68;1.02;;;2.20;99.90;;;;;;5086129;28;20045;-64
2022/01/09 03:35:14;;;;;;;11.45;2.47;;;2.10;99.90;;;;;;5078256;28;20053;-67
2022/01/09 03:37:44;;;;;;;7.00;0.93;;;2.10;99.90;;;;;;5073118;28;20051;-66
2022/01/09 03:40:14;;;;;;;14.02;1.15;;;2.00;99.90;;;;;;5075128;28;20055;-65
2022/01/09 03:42:42;;;;;;;6.90;1.00;;;2.00;99.90;;;;;;5089151;28;20051;-64
2022/01/09 03:45:10;;;;;;;10.13;1.38;;;2.00;99.90;;;;;;5092362;28;20074;-65
2022/01/09 03:47:38;;;;;;;12.25;2.20;;;1.90;99.90;;;;;;5093285;28;20372;-70
2022/01/09 03:50:08;;;;;;;8.80;1.45;;;1.90;99.90;;;;;;5100383;28;20056;-69
2022/01/09 03:52:38;;;;;;;8.13;1.00;;;1.80;99.90;;;;;;5110358;28;20043;-69
2022/01/09 03:55:07;;;;;;;;;;;1.80;99.90;;;;;;5089136;28;20056;-66
2022/01/09 03:57:34;;;;;;;7.75;0.85;;;1.90;99.90;;;;;;5091289;28;19928;-68
2022/01/09 04:00:05;;;;;;;8.27;1.17;;;1.90;99.90;;;;;;5081325;28;20059;-67
2022/01/09 04:02:33;;;;;;;13.73;1.35;;;1.90;99.90;;;;;;5093633;28;20040;-72
2022/01/09 04:05:01;;;;;;;9.77;1.02;;;2.00;99.90;;;;;;5093719;28;20044;-68
2022/01/09 04:07:29;;;;;;;7.13;1.67;;;2.10;99.90;;;;;;5092415;28;20040;-68
2022/01/09 04:09:56;;;;;;;8.90;1.20;;;2.10;99.90;;;;;;5090982;28;20055;-70
2022/01/09 04:12:34;;;;;;;11.63;0.70;;;2.10;99.90;;;;;;5072599;28;20613;-69
2022/01/09 04:15:06;;;;;;;17.08;1.70;;;2.20;99.90;;;;;;5103289;28;20048;-67
2022/01/09 04:20:09;;;;;;;11.82;1.75;;;2.30;99.90;;;;;;5092111;28;20059;-68
2022/01/09 04:22:37;;;;;;;11.65;1.60;;;2.40;99.90;;;;;;5092303;28;20036;-72
2022/01/09 04:25:05;;;;;;;8.57;1.58;;;2.40;99.90;;;;;;5102110;28;20055;-64
2022/01/09 04:27:33;;;;;;;1.38;0.60;;;2.50;99.90;;;;;;5103115;28;20044;-65
2022/01/09 04:30:01;;;;;;;14.15;1.60;;;2.50;99.90;;;;;;5094551;28;20059;-65
2022/01/09 04:32:29;;;;;;;11.20;1.52;;;2.50;99.90;;;;;;5093513;28;20051;-64
2022/01/09 04:34:57;;;;;;;7.18;1.35;;;2.50;99.90;;;;;;5076188;28;20052;-64
2022/01/09 04:37:25;;;;;;;9.55;1.15;;;2.40;99.90;;;;;;5071572;28;20048;-64
2022/01/09 04:39:54;;;;;;;9.98;1.17;;;2.40;99.90;;;;;;5085235;28;20044;-64
2022/01/09 04:42:27;;;;;;;13.77;1.10;;;2.40;99.90;;;;;;5090649;28;20048;-64
2022/01/09 04:44:55;;;;;;;20.25;1.83;;;2.40;99.90;;;;;;5092712;28;20491;-64
2022/01/09 04:47:22;;;;;;;5.95;0.77;;;2.40;99.90;;;;;;5085656;28;20058;-64
2022/01/09 04:49:50;;;;;;;6.22;1.13;;;2.40;99.90;;;;;;5079753;28;20048;-64
2022/01/09 04:52:22;;;;;;;9.88;0.95;;;2.40;99.90;;;;;;5094150;28;20423;-66
2022/01/09 04:54:50;;;;;;;6.18;0.93;;;2.40;99.90;;;;;;5095939;28;20051;-65
2022/01/09 04:57:18;;;;;;;13.35;1.33;;;2.40;99.90;;;;;;5084937;28;20050;-65
2022/01/09 04:59:45;;;;;;;10.70;1.23;;;2.40;99.90;;;;;;5087616;28;20055;-64
2022/01/09 05:02:13;;;;;;;5.85;0.82;;;2.40;99.90;;;;;;5091993;28;20040;-64
2022/01/09 05:04:41;;;;;;;12.05;1.50;;;2.40;99.90;;;;;;5092288;28;20503;-65
2022/01/09 05:07:09;;;;;;;12.70;1.15;;;2.40;99.90;;;;;;5094388;28;20387;-65
2022/01/09 05:09:37;;;;;;;5.20;1.17;;;2.30;99.90;;;;;;5086487;28;20040;-64
2022/01/09 05:12:10;;;;;;;8.30;1.00;;;2.30;99.90;;;;;;5089465;28;20056;-65
2022/01/09 05:14:38;;;;;;;6.20;1.38;;;2.20;99.90;;;;;;5085571;28;20524;-67
2022/01/09 05:17:06;;;;;;;4.20;0.90;;;2.20;99.90;;;;;;5082600;28;20059;-67
2022/01/09 05:19:35;;;;;;;7.05;1.10;;;2.20;99.90;;;;;;5090064;28;20045;-76
2022/01/09 05:22:05;;;;;;;7.85;1.33;;;2.10;99.90;;;;;;5092930;28;20047;-65
2022/01/09 05:24:33;;;;;;;13.82;1.40;;;2.10;99.90;;;;;;5105528;28;20039;-66
2022/01/09 05:27:00;;;;;;;5.57;1.23;;;2.00;99.90;;;;;;5111314;28;20415;-69
2022/01/09 05:29:28;;;;;;;10.40;1.52;;;2.00;99.90;;;;;;5090785;28;20051;-73
2022/01/09 05:31:56;;;;;;;11.32;1.77;;;2.00;99.90;;;;;;5080582;28;20047;-68
2022/01/09 05:34:23;;;;;;;8.80;1.13;;;1.90;99.90;;;;;;5093722;28;20067;-67
2022/01/09 05:36:51;;;;;;;9.98;1.67;;;1.90;99.90;;;;;;5095562;28;20051;-67
2022/01/09 05:39:19;;;;;;;8.25;1.98;;;1.80;99.90;;;;;;5086186;28;20050;-67
2022/01/09 05:41:47;;;;;;;6.88;1.13;;;1.80;99.90;;;;;;5080357;28;20055;-65
2022/01/09 05:44:17;;;;;;;8.23;1.60;;;1.70;99.90;;;;;;5091135;28;20063;-65
2022/01/09 05:46:45;;;;;;;6.43;1.08;;;1.70;99.90;;;;;;5075002;28;20053;-64
2022/01/09 05:49:13;;;;;;;5.70;0.90;;;1.70;99.90;;;;;;5071681;28;20045;-65
2022/01/09 05:51:41;;;;;;;10.93;1.42;;;1.70;99.90;;;;;;5094334;28;20054;-64
2022/01/09 05:54:09;;;;;;;8.50;1.30;;;1.60;99.90;;;;;;5081964;28;20051;-65
2022/01/09 05:56:36;;;;;;;7.28;1.52;;;1.60;99.90;;;;;;5087575;28;20499;-64
2022/01/09 05:59:04;;;;;;;6.47;1.30;;;1.60;99.90;;;;;;5087635;28;20546;-65
2022/01/09 06:01:32;;;;;;;11.52;1.25;;;1.70;99.90;;;;;;5083733;28;20060;-70
2022/01/09 06:03:59;;;;;;;7.50;1.10;;;1.70;99.90;;;;;;5066808;28;20043;-63
2022/01/09 06:06:27;;;;;;;8.95;1.00;;;1.60;99.90;;;;;;5069944;28;20055;-67
2022/01/09 06:08:54;;;;;;;8.00;1.00;;;1.70;99.90;;;;;;5076152;28;20044;-65
2022/01/09 06:11:22;;;;;;;4.28;0.75;;;1.70;99.90;;;;;;5083060;28;20040;-71
2022/01/09 06:13:50;;;;;;;6.38;1.08;;;1.70;99.90;;;;;;5078284;28;20049;-66
2022/01/09 06:16:18;;;;;;;9.20;0.98;;;1.70;99.90;;;;;;5093006;28;20047;-67
2022/01/09 06:18:45;;;;;;;10.10;1.10;;;1.70;99.90;;;;;;5086445;28;20048;-65
2022/01/09 06:21:13;;;;;;;9.63;1.08;;;1.70;99.90;;;;;;5069167;28;20044;-68
2022/01/09 06:23:41;;;;;;;8.63;1.65;;;1.70;99.90;;;;;;5082791;28;20040;-75
2022/01/09 06:26:08;;;;;;;5.00;0.82;;;1.70;99.90;;;;;;5090522;28;20380;-69
2022/01/09 06:28:36;;;;;;;5.85;1.23;;;1.70;99.90;;;;;;5088402;28;20071;-65
2022/01/09 06:31:03;;;;;;;8.25;1.55;;;1.60;99.90;;;;;;5082901;28;20048;-65
2022/01/09 06:33:31;;;;;;;5.47;0.82;;;1.60;99.90;;;;;;5080902;28;20069;-65
2022/01/09 06:35:59;;;;;;;7.20;1.23;;;1.60;99.90;;;;;;5079450;28;20044;-64
2022/01/09 06:38:27;;;;;;;10.63;0.90;;;1.60;99.90;;;;;;5049546;28;20048;-64
2022/01/09 06:40:54;;;;;;;7.30;1.50;;;1.60;99.90;;;;;;5072403;28;20051;-64
2022/01/09 06:43:22;;;;;;;5.05;0.90;;;1.60;99.90;;;;;;5080770;28;20048;-64
2022/01/09 06:45:50;;;;;;;6.45;1.02;;;1.60;99.90;;;;;;5087422;28;20063;-69
2022/01/09 06:48:17;;;;;;;7.85;1.10;;;1.60;99.90;;;;;;5085712;28;20044;-71
2022/01/09 06:50:45;;;;;;;6.32;0.88;;;1.60;99.90;;;;;;5070548;28;20044;-71
2022/01/09 06:53:13;;;;;;;5.93;1.40;;;1.70;99.90;;;;;;5076083;28;20044;-70
2022/01/09 06:55:41;;;;;;;9.65;1.17;;;1.70;99.90;;;;;;5071909;28;20056;-65
2022/01/09 06:58:08;;;;;;;8.88;1.35;;;1.80;99.90;;;;;;5084357;28;20055;-70
2022/01/09 07:00:36;;;;;;;7.43;1.52;;;1.80;99.90;;;;;;5081571;28;20056;-70
2022/01/09 07:03:04;;;;;;;7.63;0.85;;;1.90;99.90;;;;;;5084831;28;20063;-71
2022/01/09 07:05:32;;;;;;;13.23;1.23;;;1.90;99.90;;;;;;5071066;28;20056;-67
2022/01/09 07:07:59;;;;;;;6.90;0.90;;;2.00;99.90;;;;;;5082164;28;20059;-65
2022/01/09 07:10:27;;;;;;;6.78;0.95;;;2.00;99.90;;;;;;5075041;28;20055;-75
2022/01/09 07:12:54;;;;;;;7.75;1.27;;;2.00;99.90;;;;;;5091403;28;20047;-65
2022/01/09 07:15:22;;;;;;;12.43;1.35;;;2.00;99.90;;;;;;5085332;28;20044;-65
2022/01/09 07:17:50;;;;;;;11.32;0.93;;;2.00;99.90;;;;;;5074601;28;20050;-66
2022/01/09 07:20:18;;;;;;;15.00;1.77;;;2.00;99.90;;;;;;5082116;28;20050;-66
2022/01/09 07:22:47;;;;;;;13.02;1.20;;;2.00;99.90;;;;;;5092265;28;20051;-65
2022/01/09 07:25:15;;;;;;;14.60;1.20;;;2.00;99.90;;;;;;5089896;28;20369;-64
2022/01/09 07:27:42;;;;;;;6.53;1.10;;;2.00;99.90;;;;;;5080767;28;20438;-64
2022/01/09 07:30:10;;;;;;;10.27;1.17;;;2.00;99.90;;;;;;5108825;28;20379;-64
2022/01/09 07:32:40;;;;;;;14.00;1.05;;;2.00;99.90;;;;;;5093745;28;20044;-64
2022/01/09 07:35:08;;;;;;;;;;;2.00;99.90;;;;;;5093767;28;20048;-64
2022/01/09 07:37:35;;;;;;;15.40;1.70;;;2.00;99.90;;;;;;5086978;28;19920;-64
2022/01/09 07:40:04;;;;;;;7.40;0.95;;;2.00;99.90;;;;;;5073935;28;20059;-65
2022/01/09 07:42:31;;;;;;;8.18;1.00;;;1.90;99.90;;;;;;5100920;28;20065;-65
2022/01/09 07:44:59;;;;;;;7.10;1.75;;;1.90;99.90;;;;;;5097731;28;20495;-65
2022/01/09 07:47:27;;;;;;;6.32;0.93;;;1.90;99.90;;;;;;5089079;28;20052;-65
2022/01/09 07:49:55;;;;;;;8.10;1.15;;;1.90;99.90;;;;;;5070752;28;20056;-64
2022/01/09 07:52:22;;;;;;;7.55;0.90;;;1.90;99.90;;;;;;5088478;28;20048;-65
2022/01/09 07:54:50;;;;;;;10.85;1.73;;;1.90;99.90;;;;;;5090991;28;20048;-65
2022/01/09 07:57:18;;;;;;;4.10;1.13;;;1.90;99.90;;;;;;5095011;28;20040;-64
2022/01/09 07:59:46;;;;;;;9.82;0.80;;;1.80;99.90;;;;;;5111080;28;20502;-65
2022/01/09 08:02:13;;;;;;;9.60;1.42;;;1.80;99.90;;;;;;5090692;28;20414;-64
2022/01/09 08:04:41;;;;;;;7.45;1.05;;;1.80;99.90;;;;;;5106687;28;20048;-64
2022/01/09 08:07:11;;;;;;;6.10;1.10;;;1.80;99.90;;;;;;5079214;28;20423;-64
2022/01/09 08:09:39;;;;;;;5.63;1.52;;;1.90;99.90;;;;;;5081293;28;20492;-64
2022/01/09 08:12:10;;;;;;;9.75;1.95;;;1.80;99.90;;;;;;5085944;28;20782;-65
2022/01/09 08:14:38;;;;;;;6.97;1.15;;;1.80;99.90;;;;;;5109764;28;20117;-64
2022/01/09 08:17:06;;;;;;;18.60;2.13;;;1.80;99.90;;;;;;5111067;28;20506;-64
2022/01/09 08:19:35;;;;;;;9.85;1.02;;;1.80;99.90;;;;;;5109979;28;20056;-65
2022/01/09 08:22:04;;;;;;;12.75;1.50;;;1.80;99.90;;;;;;5088474;28;20079;-64
2022/01/09 08:24:34;;;;;;;5.90;1.15;;;1.90;99.90;;;;;;5101427;28;20387;-65
2022/01/09 08:27:03;;;;;;;13.35;1.45;;;1.90;99.90;;;;;;5089149;28;20051;-74
2022/01/09 08:29:30;;;;;;;8.73;1.35;;;2.00;99.90;;;;;;5110518;28;20039;-66
2022/01/09 08:31:58;;;;;;;13.50;1.77;;;2.00;99.90;;;;;;5111166;28;20063;-65
2022/01/09 08:34:26;;;;;;;11.73;1.60;;;2.10;99.90;;;;;;5110680;28;20047;-64
2022/01/09 08:36:54;;;;;;;11.88;1.35;;;2.10;99.90;;;;;;5102457;28;20044;-69
2022/01/09 08:39:22;;;;;;;15.85;1.75;;;2.20;99.90;;;;;;5090936;28;20040;-68
2022/01/09 08:41:49;;;;;;;7.97;1.23;;;2.20;99.90;;;;;;5089835;28;20391;-72
2022/01/09 08:44:17;;;;;;;12.15;1.85;;;2.30;99.90;;;;;;5088527;28;20044;-65
2022/01/09 08:46:44;;;;;;;9.40;1.38;;;2.30;99.90;;;;;;5102037;28;20048;-69
2022/01/09 08:49:14;;;;;;;9.88;1.50;;;2.40;99.90;;;;;;5090823;28;20047;-66
2022/01/09 08:51:41;;;;;;;10.57;1.92;;;2.30;99.90;;;;;;5084566;28;20048;-66
2022/01/09 08:54:09;;;;;;;10.07;1.23;;;2.40;99.90;;;;;;5105509;28;20469;-66
2022/01/09 08:56:39;;;;;;;10.80;1.23;;;2.40;99.90;;;;;;5109869;28;20379;-65
2022/01/09 08:59:07;;;;;;;13.32;1.50;;;2.40;99.90;;;;;;5087358;28;20036;-65
2022/01/09 09:01:44;;;;;;;13.82;1.35;;;2.40;99.90;;;;;;5080294;28;20910;-65
2022/01/09 09:04:12;;;;;;;9.43;1.63;;;2.40;99.90;;;;;;5079204;28;20044;-66
2022/01/09 09:06:40;;;;;;;9.05;1.52;;;2.50;99.90;;;;;;5085212;28;20044;-66
2022/01/09 09:09:08;;;;;;;9.90;1.17;;;2.50;99.90;;;;;;5094681;28;20055;-68
2022/01/09 09:11:37;;;;;;;6.93;0.82;;;2.50;99.90;;;;;;5109791;28;20418;-67
2022/01/09 09:14:05;;;;;;;11.00;2.97;;;2.50;99.90;;;;;;5100477;28;20043;-71
2022/01/09 09:16:34;;;;;;;10.93;1.60;;;2.50;99.90;;;;;;5097698;28;20138;-64
2022/01/09 09:19:02;;;;;;;10.70;2.78;;;2.60;99.90;;;;;;5082758;28;20059;-66
2022/01/09 09:21:29;;;;;;;16.08;1.92;;;2.60;99.90;;;;;;5075024;28;20062;-75
2022/01/09 09:23:57;;;;;;;8.70;1.65;;;2.60;99.90;;;;;;5092340;28;20035;-68
2022/01/09 09:26:25;;;;;;;10.20;1.88;;;2.50;99.90;;;;;;5106403;28;20047;-70
2022/01/09 09:28:52;;;;;;;10.88;2.03;;;2.50;99.90;;;;;;5109149;28;20055;-72
2022/01/09 09:31:20;;;;;;;11.15;1.08;;;2.50;99.90;;;;;;5076896;28;20511;-74
2022/01/09 09:33:47;;;;;;;14.35;1.95;;;2.50;99.90;;;;;;5083078;28;20383;-76
2022/01/09 09:36:15;;;;;;;10.20;1.88;;;2.50;99.90;;;;;;5086046;28;20047;-72
2022/01/09 09:38:43;;;;;;;10.35;2.67;;;2.60;99.90;;;;;;5081667;28;20048;-65
2022/01/09 09:41:10;;;;;;;13.52;2.45;;;2.60;99.90;;;;;;5088072;28;20410;-67
2022/01/09 09:43:38;;;;;;;13.90;1.90;;;2.60;99.90;;;;;;5087524;28;20048;-64
2022/01/09 09:46:06;;;;;;;12.77;1.67;;;2.70;99.90;;;;;;5089086;28;20058;-65
2022/01/09 09:48:33;;;;;;;11.70;1.63;;;2.70;99.90;;;;;;5083730;28;20048;-65
2022/01/09 09:51:01;;;;;;;12.35;2.30;;;2.70;99.90;;;;;;5065439;28;20047;-65
2022/01/09 09:53:29;;;;;;;6.40;1.88;;;2.80;99.90;;;;;;5069584;28;20057;-65
2022/01/09 09:55:57;;;;;;;9.63;1.65;;;2.80;99.90;;;;;;5078972;28;20055;-65
2022/01/09 09:58:27;;;;;;;14.13;1.63;;;2.90;99.90;;;;;;5088565;28;20043;-69
2022/01/09 10:00:56;;;;;;;20.10;2.13;;;2.90;99.90;;;;;;5068056;28;20056;-65
2022/01/09 10:03:32;;;;;;;14.05;1.38;;;3.00;99.90;;;;;;5082523;28;20043;-67
2022/01/09 10:06:02;;;;;;;7.75;1.70;;;3.10;99.90;;;;;;5068455;28;20051;-66
2022/01/09 10:08:36;;;;;;;7.32;1.17;;;3.10;99.90;;;;;;5075982;28;20487;-72
2022/01/09 10:11:14;;;;;;;10.43;1.60;;;3.20;99.90;;;;;;5088439;28;20062;-66
2022/01/09 10:13:42;;;;;;;6.20;1.15;;;3.30;99.90;;;;;;5088414;28;20063;-65
2022/01/09 10:16:10;;;;;;;10.20;1.60;;;3.40;99.90;;;;;;5088751;28;20048;-65
2022/01/09 10:18:40;;;;;;;9.88;1.52;;;3.40;99.90;;;;;;5087105;28;20043;-65
2022/01/09 10:21:19;;;;;;;8.27;1.40;;;3.50;99.90;;;;;;5074192;28;20495;-64
2022/01/09 10:24:04;;;;;;;13.20;2.72;;;3.60;99.90;;;;;;5083959;28;20040;-68
2022/01/09 10:26:36;;;;;;;9.40;1.33;;;3.70;99.90;;;;;;5072198;28;20246;-65
2022/01/09 10:29:06;;;;;;;14.95;3.38;;;3.80;99.90;;;;;;5083170;28;20059;-65
2022/01/09 10:31:49;;;;;;;12.38;1.35;;;4.00;99.90;;;;;;5087270;28;20051;-64
2022/01/09 10:34:17;;;;;;;7.75;1.73;;;4.10;99.90;;;;;;5087914;28;20055;-64
2022/01/09 10:36:51;;;;;;;17.70;3.50;;;4.20;99.90;;;;;;5088329;28;20044;-69
2022/01/09 10:39:29;;;;;;;9.98;1.95;;;4.30;99.90;;;;;;5085822;28;20415;-71
2022/01/09 10:41:59;;;;;;;13.63;1.73;;;4.40;99.90;;;;;;5067204;28;20048;-71
2022/01/09 10:44:34;;;;;;;10.13;1.83;;;4.50;99.90;;;;;;5081118;28;20048;-76
2022/01/09 10:47:07;;;;;;;11.35;1.33;;;4.60;99.90;;;;;;5086080;28;20051;-75
2022/01/09 10:49:49;;;;;;;6.75;1.67;;;4.60;99.90;;;;;;5069244;28;20257;-69
2022/01/09 10:52:25;;;;;;;11.40;1.52;;;4.80;99.90;;;;;;5069032;28;20052;-65
2022/01/09 10:54:58;;;;;;;12.90;2.05;;;4.80;99.90;;;;;;5069275;28;20499;-66
2022/01/09 10:57:29;;;;;;;8.90;1.08;;;4.90;99.90;;;;;;5068520;28;20051;-65
2022/01/09 11:00:12;;;;;;;9.50;1.50;;;5.00;99.90;;;;;;5073937;28;20044;-65
2022/01/09 11:02:40;;;;;;;16.58;1.73;;;5.00;99.90;;;;;;5087420;28;20189;-65
2022/01/09 11:05:08;;;;;;;11.25;2.40;;;5.10;99.90;;;;;;5073690;28;20044;-65
2022/01/09 11:07:37;;;;;;;11.20;1.30;;;5.20;99.90;;;;;;5070352;28;20087;-64
2022/01/09 11:10:07;;;;;;;11.43;2.10;;;5.30;99.90;;;;;;5086810;28;20514;-65
2022/01/09 11:12:46;;;;;;;10.63;1.98;;;5.40;99.90;;;;;;5086647;28;20055;-64
2022/01/09 11:15:18;;;;;;;20.73;2.25;;;5.50;99.90;;;;;;5091594;28;20044;-64
2022/01/09 11:17:47;;;;;;;13.43;1.52;;;5.70;99.90;;;;;;5086000;28;20060;-65
2022/01/09 11:20:17;;;;;;;19.55;2.58;;;5.80;99.90;;;;;;5086660;28;20048;-66
2022/01/09 11:22:47;;;;;;;15.40;2.28;;;5.90;99.90;;;;;;5082422;28;20041;-65
2022/01/09 11:25:40;;;;;;;20.70;2.92;;;6.00;99.90;;;;;;5067798;28;20504;-64
2022/01/09 11:28:25;;;;;;;16.02;3.03;;;6.20;99.90;;;;;;5085681;28;20040;-66
2022/01/09 11:31:13;;;;;;;3.80;1.13;;;6.30;99.90;;;;;;5082671;28;20047;-64
2022/01/09 11:33:40;;;;;;;8.90;1.90;;;6.40;99.90;;;;;;5060059;28;20048;-68
2022/01/09 11:36:33;;;;;;;10.70;2.13;;;6.50;99.90;;;;;;5083880;28;20055;-73
2022/01/09 11:39:14;;;;;;;15.27;2.13;;;6.70;99.90;;;;;;5072514;28;20075;-67
2022/01/09 11:41:45;;;;;;;11.77;1.90;;;6.90;99.90;;;;;;5080888;28;20048;-76
2022/01/09 11:44:15;;;;;;;14.57;2.25;;;7.00;99.90;;;;;;5088093;28;20055;-74
2022/01/09 11:47:05;;;;;;;9.10;2.55;;;7.20;99.90;;;;;;5069661;28;20056;-68
2022/01/09 11:49:49;;;;;;;9.90;1.63;;;7.30;99.90;;;;;;5089098;28;20059;-67
2022/01/09 11:52:16;;;;;;;15.57;1.70;;;7.50;99.90;;;;;;5086459;28;20049;-72
2022/01/09 11:55:01;;;;;;;9.13;1.00;;;7.50;99.90;;;;;;5078415;28;20036;-68
2022/01/09 11:57:46;;;;;;;7.90;1.45;;;7.60;99.90;;;;;;5083199;28;20503;-64
2022/01/09 12:00:32;;;;;;;9.18;1.70;;;7.70;99.90;;;;;;5089692;28;20063;-64
2022/01/09 12:03:00;;;;;;;10.07;1.50;;;8.00;99.90;;;;;;5090365;28;20071;-65
2022/01/09 12:05:28;;;;;;;8.40;1.33;;;8.20;99.90;;;;;;5090671;28;20044;-70
2022/01/09 12:08:00;;;;;;;7.32;1.20;;;8.40;99.90;;;;;;5089342;28;20054;-68
2022/01/09 12:10:33;;;;;;;11.23;2.08;;;8.60;99.90;;;;;;5090025;28;20044;-64
2022/01/09 12:13:02;;;;;;;14.77;1.50;;;8.70;99.90;;;;;;5089329;28;20052;-73
2022/01/09 12:15:41;;;;;;;11.13;1.50;;;8.80;99.90;;;;;;5090768;28;20047;-66
2022/01/09 12:18:44;;;;;;;9.73;1.63;;;9.00;99.90;;;;;;5090554;28;20395;-65
2022/01/09 12:21:36;;;;;;;11.82;2.10;;;9.10;99.90;;;;;;5081910;28;20071;-65
2022/01/09 12:24:42;;;;;;;20.40;2.58;;;8.90;99.90;;;;;;5084379;28;20056;-69
2022/01/09 12:27:35;;;;;;;19.20;1.88;;;8.60;99.90;;;;;;5090299;28;20047;-72
2022/01/09 12:30:04;;;;;;;9.43;1.90;;;8.30;99.90;;;;;;5068777;28;20075;-68
2022/01/09 12:32:44;;;;;;;16.05;2.33;;;8.10;99.90;;;;;;5078031;28;20062;-66
2022/01/09 12:35:16;;;;;;;11.05;1.70;;;8.10;99.90;;;;;;5070879;28;20400;-69
2022/01/09 12:37:50;;;;;;;8.57;1.60;;;8.30;99.90;;;;;;5072179;28;20558;-67
2022/01/09 12:40:20;;;;;;;16.60;2.90;;;8.30;99.90;;;;;;5087293;28;20051;-76
2022/01/09 12:42:51;;;;;;;11.68;3.92;;;8.10;99.90;;;;;;5081119;28;20537;-68
2022/01/09 12:45:22;;;;;;;18.95;5.50;;;8.00;99.90;;;;;;5090253;28;20054;-68
2022/01/09 12:47:50;;;;;;;18.42;3.28;;;7.90;99.90;;;;;;5085239;28;20037;-67
2022/01/09 12:50:32;;;;;;;9.85;2.47;;;7.90;99.90;;;;;;5067296;28;20056;-69
2022/01/09 12:53:15;;;;;;;17.63;4.72;;;8.10;99.90;;;;;;5076478;28;20051;-69
2022/01/09 12:56:02;;;;;;;12.65;2.35;;;8.50;99.90;;;;;;5089539;28;20048;-65
2022/01/09 12:58:53;;;;;;;17.33;3.05;;;9.00;99.90;;;;;;5088595;28;20048;-67
2022/01/09 13:01:27;;;;;;;10.70;1.77;;;9.50;99.90;;;;;;5077117;28;20052;-67
2022/01/09 13:03:58;;;;;;;8.48;1.80;;;9.80;99.90;;;;;;5080190;28;20040;-71
2022/01/09 13:06:32;;;;;;;12.40;2.17;;;10.10;99.90;;;;;;5076025;28;20339;-68
2022/01/09 13:09:04;;;;;;;8.02;1.90;;;10.30;99.90;;;;;;5068532;28;20041;-65
2022/01/09 13:11:56;;;;;;;9.25;1.77;;;10.40;99.90;;;;;;5067840;28;20075;-65